createdAt,value
2019-05-15T00:01:58.414Z,97481.31
2019-05-15T00:06:53.178Z,97471.23
2019-05-15T00:11:48.123Z,97470.85
2019-05-15T00:16:43.018Z,97460.42
2019-05-15T00:21:38.306Z,97455.75
2019-05-15T00:26:33.040Z,97459.00
2019-05-15T00:31:29.104Z,97452.19
2019-05-15T00:36:23.850Z,97452.10
2019-05-15T00:41:18.627Z,97446.46
2019-05-15T00:46:13.360Z,97444.48
2019-05-15T00:51:08.423Z,97434.98
2019-05-15T00:56:03.333Z,97424.61
2019-05-15T01:00:59.188Z,97423.30
2019-05-15T01:05:53.948Z,97414.81
2019-05-15T01:10:48.972Z,97411.61
2019-05-15T01:15:43.775Z,97405.61
2019-05-15T01:20:39.015Z,97405.06
2019-05-15T01:25:34.184Z,97387.30
2019-05-15T01:30:28.818Z,97385.88
2019-05-15T01:35:23.412Z,97388.48
2019-05-15T01:40:19.090Z,97377.23
2019-05-15T01:45:15.086Z,97374.62
2019-05-15T01:50:10.307Z,97361.55
2019-05-15T01:55:08.817Z,97360.03
2019-05-15T02:00:03.341Z,97358.22
2019-05-15T02:04:59.155Z,97354.05
2019-05-15T02:09:53.999Z,97351.20
2019-05-15T02:14:48.717Z,97352.78
2019-05-15T02:19:43.332Z,97353.64
2019-05-15T02:24:39.051Z,97336.17
2019-05-15T02:29:34.133Z,97336.46
2019-05-15T02:34:30.130Z,97327.70
2019-05-15T02:39:25.191Z,97329.44
2019-05-15T02:44:20.272Z,97326.08
2019-05-15T02:49:15.247Z,97318.74
2019-05-15T02:54:10.352Z,97320.11
2019-05-15T02:59:05.175Z,97321.63
2019-05-15T03:03:59.833Z,97309.92
2019-05-15T03:08:54.472Z,97310.64
2019-05-15T03:13:50.485Z,97306.17
2019-05-15T03:18:45.328Z,97313.37
2019-05-15T03:23:40.692Z,97302.27
2019-05-15T03:28:38.786Z,97304.58
2019-05-15T03:33:36.241Z,97296.64
2019-05-15T03:38:29.616Z,97299.52
2019-05-15T03:43:24.719Z,97288.32
2019-05-15T03:48:19.805Z,97291.48
2019-05-15T03:53:14.670Z,97298.59
2019-05-15T03:58:10.081Z,97299.39
2019-05-15T04:03:05.303Z,97301.36
2019-05-15T04:08:00.099Z,97300.01
2019-05-15T04:12:55.036Z,97297.75
2019-05-15T04:17:49.667Z,97297.06
2019-05-15T04:22:44.290Z,97284.08
2019-05-15T04:27:42.361Z,97281.27
2019-05-15T04:32:39.948Z,97269.76
2019-05-15T04:37:33.410Z,97277.63
2019-05-15T04:42:29.852Z,97269.51
2019-05-15T04:47:24.289Z,97268.09
2019-05-15T04:52:19.507Z,97257.39
2019-05-15T04:57:14.461Z,97252.94
2019-05-15T05:02:17.390Z,97252.10
2019-05-15T05:07:05.431Z,97255.78
2019-05-15T05:12:00.040Z,97248.45
2019-05-15T05:16:54.633Z,97236.33
2019-05-15T05:21:49.217Z,97244.35
2019-05-15T05:26:43.804Z,97235.68
2019-05-15T05:31:39.179Z,97233.61
2019-05-15T05:36:34.178Z,97231.03
2019-05-15T05:41:30.068Z,97231.53
2019-05-15T05:46:24.666Z,97236.38
2019-05-15T05:51:19.577Z,97240.59
2019-05-15T05:56:14.167Z,97244.28
2019-05-15T06:01:09.522Z,97247.72
2019-05-15T06:06:04.255Z,97249.39
2019-05-15T06:10:58.945Z,97247.76
2019-05-15T06:15:53.917Z,97250.70
2019-05-15T06:20:50.028Z,97256.81
2019-05-15T06:25:48.397Z,97262.89
2019-05-15T06:30:41.932Z,97254.42
2019-05-15T06:35:39.214Z,97256.13
2019-05-15T06:40:32.936Z,97253.01
2019-05-15T06:45:28.895Z,97248.64
2019-05-15T06:50:39.213Z,97244.95
2019-05-15T06:55:34.092Z,97243.00
2019-05-15T07:00:28.961Z,97254.07
2019-05-15T07:05:26.032Z,97241.44
2019-05-15T07:10:21.660Z,97257.20
2019-05-15T07:15:18.286Z,97255.13
2019-05-15T07:20:14.387Z,97252.30
2019-05-15T07:25:10.624Z,97244.05
2019-05-15T07:30:12.139Z,97242.33
2019-05-15T07:35:13.283Z,97248.91
2019-05-15T07:40:12.036Z,97240.16
2019-05-15T07:45:12.488Z,97242.30
2019-05-15T07:50:10.939Z,97235.03
2019-05-15T07:55:09.360Z,97230.08
2019-05-15T08:00:13.835Z,97230.41
2019-05-15T08:05:12.751Z,97246.41
2019-05-15T08:10:09.426Z,97234.25
2019-05-15T08:15:08.865Z,97239.20
2019-05-15T08:20:05.756Z,97232.77
2019-05-15T08:25:00.436Z,97227.34
2019-05-15T08:29:55.031Z,97230.53
2019-05-15T08:34:49.674Z,97223.85
2019-05-15T08:39:44.376Z,97225.52
2019-05-15T08:44:39.676Z,97223.67
2019-05-15T08:49:34.860Z,97219.68
2019-05-15T08:54:30.411Z,97218.72
2019-05-15T08:59:25.299Z,97212.86
2019-05-15T09:04:30.653Z,97227.13
2019-05-15T09:09:18.279Z,97218.20
2019-05-15T09:14:13.583Z,97216.80
2019-05-15T09:19:08.502Z,97208.11
2019-05-15T09:24:03.518Z,97199.38
2019-05-15T09:28:58.590Z,97208.20
2019-05-15T09:33:53.671Z,97195.41
2019-05-15T09:38:49.188Z,97204.08
2019-05-15T09:43:45.153Z,97190.75
2019-05-15T09:48:40.367Z,97196.81
2019-05-15T09:53:34.991Z,97192.80
2019-05-15T09:58:31.241Z,97201.02
2019-05-15T10:03:28.137Z,97190.35
2019-05-15T10:08:22.299Z,97182.45
2019-05-15T10:13:18.403Z,97186.85
2019-05-15T10:18:13.717Z,97166.88
2019-05-15T10:23:08.895Z,97176.09
2019-05-15T10:28:03.724Z,97188.91
2019-05-15T10:32:58.486Z,97173.45
2019-05-15T10:37:53.095Z,97180.98
2019-05-15T10:42:49.641Z,97176.41
2019-05-15T10:47:44.516Z,97178.29
2019-05-15T10:52:39.313Z,97160.75
2019-05-15T10:57:34.188Z,97162.36
2019-05-15T11:02:29.147Z,97161.70
2019-05-15T11:07:23.921Z,97165.52
2019-05-15T11:12:19.125Z,97153.45
2019-05-15T11:17:13.901Z,97147.58
2019-05-15T11:22:13.600Z,97135.09
2019-05-15T11:27:12.979Z,97153.45
2019-05-15T11:32:13.614Z,97143.98
2019-05-15T11:37:14.472Z,97136.20
2019-05-15T11:42:20.253Z,97131.95
2019-05-15T11:47:18.425Z,97118.17
2019-05-15T11:52:13.282Z,97117.31
2019-05-15T11:57:08.636Z,97118.90
2019-05-15T12:02:03.352Z,97125.45
2019-05-15T12:07:02.305Z,97121.69
2019-05-15T12:11:57.222Z,97127.14
2019-05-15T12:17:05.041Z,97110.22
2019-05-15T12:21:49.268Z,97117.14
2019-05-15T12:26:43.996Z,97104.20
2019-05-15T12:31:39.004Z,97108.50
2019-05-15T12:36:50.760Z,97108.21
2019-05-15T13:01:21.908Z,97107.72
2019-05-15T13:06:19.215Z,97092.58
2019-05-15T13:11:15.202Z,97092.61
2019-05-15T13:16:10.703Z,97092.86
2019-05-15T13:21:05.327Z,97078.41
2019-05-15T13:25:59.941Z,97088.64
2019-05-15T13:30:54.540Z,97086.16
2019-05-15T13:35:49.299Z,97100.30
2019-05-15T13:40:48.019Z,97093.58
2019-05-15T13:45:42.926Z,97093.66
2019-05-15T13:50:40.320Z,97091.28
2019-05-15T13:55:41.342Z,97087.66
2019-05-15T14:00:32.842Z,97090.28
2019-05-15T14:05:29.653Z,97088.52
2019-05-15T14:10:24.364Z,97079.55
2019-05-15T14:15:19.869Z,97083.30
2019-05-15T14:20:16.996Z,97071.05
2019-05-15T14:25:12.774Z,97072.98
2019-05-15T14:30:10.893Z,97074.91
2019-05-15T14:35:08.861Z,97068.89
2019-05-15T14:40:02.712Z,97065.10
2019-05-15T14:44:59.279Z,97061.19
2019-05-15T14:49:53.737Z,97066.45
2019-05-15T14:54:48.983Z,97062.34
2019-05-15T14:59:48.657Z,97059.36
2019-05-15T15:04:43.001Z,97058.52
2019-05-15T15:09:37.859Z,97059.70
2019-05-15T15:14:32.465Z,97051.33
2019-05-15T15:19:29.101Z,97057.21
2019-05-15T15:24:23.455Z,97054.31
2019-05-15T15:29:19.040Z,97046.80
2019-05-15T15:34:13.816Z,97049.69
2019-05-15T15:39:08.560Z,97051.34
2019-05-15T15:44:04.049Z,97053.27
2019-05-15T15:48:59.220Z,97054.94
2019-05-15T15:53:54.097Z,97050.95
2019-05-15T15:58:49.070Z,97046.86
2019-05-15T16:03:43.926Z,97056.52
2019-05-15T16:08:52.160Z,97048.45
2019-05-15T16:13:34.851Z,97052.64
2019-05-15T16:18:29.430Z,97048.83
2019-05-15T16:23:24.024Z,97044.76
2019-05-15T16:28:18.719Z,97039.72
2019-05-15T16:33:13.319Z,97033.73
2019-05-15T16:38:09.366Z,97037.73
2019-05-15T16:43:04.859Z,97037.39
2019-05-15T16:48:00.102Z,97036.18
2019-05-15T16:52:54.682Z,97039.83
2019-05-15T16:57:49.271Z,97040.42
2019-05-15T17:02:43.886Z,97041.03
2019-05-15T17:07:39.123Z,97033.97
2019-05-15T17:12:34.011Z,97032.22
2019-05-15T17:17:28.610Z,97033.59
2019-05-15T17:22:23.249Z,97042.50
2019-05-15T17:27:18.602Z,97040.61
2019-05-15T17:32:13.424Z,97039.31
2019-05-15T17:37:08.034Z,97040.84
2019-05-15T17:42:02.636Z,97041.63
2019-05-15T17:46:58.437Z,97036.78
2019-05-15T17:51:53.224Z,97038.67
2019-05-15T17:56:48.903Z,97044.55
2019-05-15T18:01:43.734Z,97041.80
2019-05-15T18:06:39.761Z,97047.06
2019-05-15T18:11:34.878Z,97043.75
2019-05-15T18:16:29.495Z,97041.00
2019-05-15T18:21:25.177Z,97040.16
2019-05-15T18:26:19.879Z,97042.59
2019-05-15T18:31:14.496Z,97042.91
2019-05-15T18:36:09.165Z,97040.27
2019-05-15T18:41:04.330Z,97039.31
2019-05-15T18:45:58.920Z,97039.88
2019-05-15T18:50:53.508Z,97033.77
2019-05-15T18:55:48.819Z,97035.80
2019-05-15T19:00:44.090Z,97039.04
2019-05-15T19:05:38.816Z,97042.43
2019-05-15T19:10:33.364Z,97050.41
2019-05-15T19:15:28.611Z,97044.53
2019-05-15T19:20:24.525Z,97044.40
2019-05-15T19:25:19.390Z,97054.55
2019-05-15T19:30:15.083Z,97051.92
2019-05-15T19:35:11.191Z,97056.66
2019-05-15T19:40:10.879Z,97058.36
2019-05-15T19:45:08.575Z,97059.75
2019-05-15T19:50:04.685Z,97050.63
2019-05-15T19:54:59.299Z,97049.34
2019-05-15T19:59:54.271Z,97043.79
2019-05-15T20:04:49.151Z,97041.22
2019-05-15T20:09:44.038Z,97043.11
2019-05-15T20:14:38.634Z,97039.27
2019-05-15T20:19:33.220Z,97030.80
2019-05-15T20:24:28.743Z,97035.16
2019-05-15T20:29:23.476Z,97026.25
2019-05-15T20:34:18.073Z,97021.81
2019-05-15T20:39:12.813Z,97016.19
2019-05-15T20:44:10.454Z,97014.14
2019-05-15T20:49:05.180Z,97018.22
2019-05-15T20:53:59.766Z,97006.50
2019-05-15T20:58:55.156Z,97004.78
2019-05-15T21:03:51.039Z,96996.53
2019-05-15T21:08:45.847Z,97005.48
2019-05-15T21:13:40.417Z,96995.77
2019-05-15T21:18:35.166Z,96982.33
2019-05-15T21:23:29.762Z,96979.64
2019-05-15T21:28:24.351Z,96974.25
2019-05-15T21:33:18.911Z,96973.32
2019-05-15T21:38:13.776Z,96969.33
2019-05-15T21:43:08.903Z,96969.25
2019-05-15T21:48:03.852Z,96958.40
2019-05-15T21:52:58.442Z,96950.63
2019-05-15T21:57:53.037Z,96948.98
2019-05-15T22:02:49.371Z,96934.64
2019-05-15T22:07:44.157Z,96934.99
2019-05-15T22:12:39.190Z,96929.66
2019-05-15T22:17:33.784Z,96925.44
2019-05-15T22:22:28.564Z,96925.67
2019-05-15T22:27:23.162Z,96927.71
2019-05-15T22:32:18.708Z,96922.67
2019-05-15T22:37:13.380Z,96913.44
2019-05-15T22:42:10.796Z,96916.18
2019-05-15T22:47:04.436Z,96902.84
2019-05-15T22:51:59.032Z,96903.39
2019-05-15T22:56:53.607Z,96903.78
2019-05-15T23:01:49.301Z,96900.52
2019-05-15T23:06:44.182Z,96891.30
2019-05-15T23:11:39.509Z,96903.80
2019-05-15T23:16:34.445Z,96899.25
2019-05-15T23:21:29.215Z,96895.02
2019-05-15T23:26:23.785Z,96892.63
2019-05-15T23:31:18.895Z,96876.34
2019-05-15T23:36:13.667Z,96873.86
2019-05-15T23:41:08.376Z,96870.34
2019-05-15T23:46:02.979Z,96866.84
2019-05-15T23:50:59.135Z,96849.08
2019-05-15T23:55:53.905Z,96846.80
